Impacts METAR Board
IDs:

KORD - Chicago/O'Hare Intl, IL, US

Updated at: 0500 UTC 25 May 2018
Potential Impact None Slight Moderate High
Time 24/17Z 24/18Z 24/19Z 24/20Z 24/21Z 24/22Z 24/23Z 25/00Z 25/01Z 25/02Z 25/03Z 25/04Z 25/05Z
Temp82 82 84 85 85 85 85 82 79 75 73 72 71
Dewpt55 55 55 55 54 55 55 54 53 52 53 53 54
Altim30.16 30.14 30.11 30.10 30.08 30.06 30.04 30.03 30.02 30.02 30.03 30.02 30.02
VIS10 10 10 10 10 10 10 10 10 10 10 10 10
CIG-- -- 250 250 250 250 250 250 250 -- -- -- --
CoverSCTSCTBKNBKNBKNBKNBKNBKNBKNSCTFEWFEWFEW
FltCatVFRVFRVFRVFRVFRVFRVFRVFRVFRVFRVFRVFRVFR
WX--------------------------
WDir18000220190160170100120120140140170
WSpd6 4 5 5 8 8 8 8 8 7 4 5 4
WGst-- -- -- -- -- -- -- -- -- -- -- -- --
Raw hourly METARs
KORD 241651Z 18006KT 10SM SCT250 28/13 A3016 RMK AO2 SLP210 T02780128
KORD 241751Z VRB04KT 10SM SCT250 28/13 A3014 RMK AO2 SLP202 T02780128 10283 20172 58015
KORD 241851Z VRB05KT 10SM BKN250 29/13 A3011 RMK AO2 SLP194 T02890128
KORD 241951Z 22005KT 10SM FEW070 BKN250 29/13 A3010 RMK AO2 SLP189 T02940128
KORD 242051Z 19008KT 10SM FEW070 BKN250 29/12 A3008 RMK AO2 SLP183 T02940122 56018
KORD 242151Z 16008KT 10SM FEW070 BKN250 29/13 A3006 RMK AO2 SLP176 T02940128
KORD 242251Z 17008KT 10SM BKN250 29/13 A3004 RMK AO2 SLP169 T02940128
KORD 242351Z 10008KT 10SM BKN250 28/12 A3003 RMK AO2 SLP163 T02780122 10306 20278 56019
KORD 250051Z 12008KT 10SM BKN250 26/12 A3002 RMK AO2 SLP163 T02610117
KORD 250151Z 12007KT 10SM SCT250 24/11 A3002 RMK AO2 SLP163 T02390111
KORD 250251Z 14004KT 10SM FEW250 23/12 A3003 RMK AO2 SLP165 T02280117 53002
KORD 250351Z 14005KT 10SM FEW250 22/12 A3002 RMK AO2 SLP162 T02220117
KORD 250451Z 17004KT 10SM FEW250 22/12 A3002 RMK AO2 SLP160 T02170122



Page loaded:  05:07 UTC  |   10:07 PM Pacific  |   11:07 PM Mountain  |   12:07 AM Central  |   01:07 AM Eastern

 

ADVISORIES

FORECASTS

FORECASTS

OBSERVATIONS

USER TOOLS

ABOUT US